createdAt,value
2019-01-27T00:02:00.868Z,14.37
2019-01-27T00:04:30.498Z,15.03
2019-01-27T00:06:56.664Z,14.80
2019-01-27T00:09:27.852Z,15.80
2019-01-27T00:11:54.285Z,13.93
2019-01-27T00:14:20.499Z,14.50
2019-01-27T00:16:46.654Z,14.67
2019-01-27T00:19:12.810Z,15.60
2019-01-27T00:21:39.085Z,14.10
2019-01-27T00:24:05.249Z,13.53
2019-01-27T00:26:31.407Z,13.07
2019-01-27T00:28:57.598Z,13.73
2019-01-27T00:31:23.758Z,15.63
2019-01-27T00:33:49.907Z,15.10
2019-01-27T00:36:16.083Z,13.80
2019-01-27T00:38:42.241Z,15.47
2019-01-27T00:41:08.501Z,16.73
2019-01-27T00:43:34.830Z,15.90
2019-01-27T00:46:00.970Z,15.20
2019-01-27T00:48:27.133Z,13.40
2019-01-27T00:50:53.324Z,14.90
2019-01-27T00:53:19.471Z,17.57
2019-01-27T00:55:45.638Z,14.90
2019-01-27T00:58:11.834Z,16.20
2019-01-27T01:00:38.186Z,16.80
2019-01-27T01:03:05.240Z,17.40
2019-01-27T01:05:31.431Z,15.90
2019-01-27T01:07:57.687Z,15.90
2019-01-27T01:10:23.849Z,15.83
2019-01-27T01:12:50.251Z,14.70
2019-01-27T01:15:16.809Z,16.00
2019-01-27T01:17:42.967Z,15.03
2019-01-27T01:20:12.350Z,15.50
2019-01-27T01:22:39.302Z,13.37
2019-01-27T01:25:09.171Z,15.97
2019-01-27T01:27:35.365Z,16.43
2019-01-27T01:30:01.525Z,15.70
2019-01-27T01:32:27.681Z,14.83
2019-01-27T01:34:53.871Z,15.03
2019-01-27T01:37:20.031Z,13.20
2019-01-27T01:39:46.246Z,14.10
2019-01-27T01:42:12.532Z,13.97
2019-01-27T01:44:38.688Z,12.70
2019-01-27T01:47:04.846Z,14.63
2019-01-27T01:49:31.038Z,12.33
2019-01-27T01:51:57.198Z,13.47
2019-01-27T01:54:23.361Z,14.90
2019-01-27T01:56:49.551Z,15.00
2019-01-27T01:59:15.709Z,14.67
2019-01-27T02:01:41.976Z,13.73
2019-01-27T02:04:08.168Z,15.27
2019-01-27T02:06:34.324Z,13.80
2019-01-27T02:09:00.480Z,15.10
2019-01-27T02:11:26.669Z,15.20
2019-01-27T02:13:52.823Z,14.00
2019-01-27T02:16:18.975Z,14.33
2019-01-27T02:18:45.273Z,16.13
2019-01-27T02:21:11.424Z,15.73
2019-01-27T02:23:37.582Z,16.13
2019-01-27T02:26:04.271Z,15.10
2019-01-27T02:28:30.435Z,14.50
2019-01-27T02:30:56.602Z,15.70
2019-01-27T02:33:22.782Z,15.77
2019-01-27T02:35:49.039Z,14.30
2019-01-27T02:38:15.187Z,13.87
2019-01-27T02:40:41.507Z,14.33
2019-01-27T02:43:07.662Z,15.60
2019-01-27T02:45:33.828Z,16.43
2019-01-27T02:48:00.014Z,16.07
2019-01-27T02:50:26.172Z,15.80
2019-01-27T02:52:52.336Z,15.30
2019-01-27T02:55:18.520Z,17.23
2019-01-27T02:57:44.678Z,17.20
2019-01-27T03:00:17.144Z,16.97
2019-01-27T03:02:43.518Z,17.17
2019-01-27T03:05:18.117Z,16.30
2019-01-27T03:07:44.371Z,15.77
2019-01-27T03:10:15.697Z,15.73
2019-01-27T03:12:41.961Z,15.53
2019-01-27T03:15:09.913Z,16.67
2019-01-27T03:17:36.205Z,18.00
2019-01-27T03:20:05.475Z,16.30
2019-01-27T03:22:31.631Z,17.00
2019-01-27T03:24:57.811Z,15.23
2019-01-27T03:27:23.962Z,16.57
2019-01-27T03:29:50.219Z,16.60
2019-01-27T03:32:16.425Z,15.57
2019-01-27T03:34:42.579Z,14.90
2019-01-27T03:37:08.735Z,14.73
2019-01-27T03:39:34.924Z,16.70
2019-01-27T03:42:01.291Z,17.27
2019-01-27T03:44:27.803Z,15.97
2019-01-27T03:46:53.992Z,15.43
2019-01-27T03:49:20.267Z,15.10
2019-01-27T03:51:46.420Z,16.43
2019-01-27T03:54:12.605Z,15.37
2019-01-27T03:56:38.859Z,17.23
2019-01-27T03:59:05.228Z,17.63
2019-01-27T04:01:31.424Z,15.83
2019-01-27T04:03:57.578Z,15.53
2019-01-27T04:06:23.832Z,16.43
2019-01-27T04:08:50.027Z,14.77
2019-01-27T04:11:16.176Z,14.33
2019-01-27T04:13:42.334Z,14.23
2019-01-27T04:16:08.632Z,14.57
2019-01-27T04:18:34.787Z,14.53
2019-01-27T04:21:00.937Z,14.27
2019-01-27T04:23:27.138Z,13.03
2019-01-27T04:25:53.286Z,12.30
2019-01-27T04:28:19.439Z,12.63
2019-01-27T04:30:45.729Z,12.97
2019-01-27T04:33:11.889Z,13.33
2019-01-27T04:35:38.053Z,14.23
2019-01-27T04:38:04.226Z,17.87
2019-01-27T04:40:30.682Z,14.70
2019-01-27T04:42:56.900Z,18.47
2019-01-27T04:45:27.772Z,14.87
2019-01-27T04:47:53.933Z,13.03
2019-01-27T04:50:20.085Z,13.30
2019-01-27T04:52:46.288Z,13.20
2019-01-27T04:55:14.641Z,12.87
2019-01-27T04:57:40.793Z,13.87
2019-01-27T05:00:10.689Z,14.20
2019-01-27T05:02:38.749Z,14.00
2019-01-27T05:05:08.509Z,14.23
2019-01-27T05:07:34.700Z,15.70
2019-01-27T05:10:00.858Z,11.17
2019-01-27T05:12:27.023Z,10.87
2019-01-27T05:14:53.518Z,12.33
2019-01-27T05:17:19.678Z,12.07
2019-01-27T05:19:45.931Z,14.30
2019-01-27T05:22:12.114Z,12.97
2019-01-27T05:24:38.275Z,12.40
2019-01-27T05:27:04.426Z,13.83
2019-01-27T05:29:30.612Z,13.03
2019-01-27T05:31:56.775Z,13.33
2019-01-27T05:34:22.928Z,14.13
2019-01-27T05:36:49.127Z,13.17
2019-01-27T05:39:15.293Z,15.77
2019-01-27T05:41:41.452Z,17.67
2019-01-27T05:44:07.707Z,20.37
2019-01-27T05:46:33.853Z,18.70
2019-01-27T05:49:00.000Z,17.57
2019-01-27T05:51:26.215Z,14.47
2019-01-27T05:53:52.363Z,24.13
2019-01-27T05:56:18.615Z,19.43
2019-01-27T05:58:44.819Z,17.77
2019-01-27T06:01:11.096Z,19.17
2019-01-27T06:03:37.234Z,14.13
2019-01-27T06:06:03.436Z,20.43
2019-01-27T06:08:29.584Z,20.90
2019-01-27T06:10:55.857Z,23.40
2019-01-27T06:13:22.044Z,25.10
2019-01-27T06:15:48.197Z,28.57
2019-01-27T06:18:14.371Z,35.83
2019-01-27T06:20:40.569Z,29.27
2019-01-27T06:23:06.831Z,33.17
2019-01-27T06:25:32.999Z,35.73
2019-01-27T06:27:59.171Z,41.63
2019-01-27T06:30:26.936Z,61.43
2019-01-27T06:33:09.880Z,43.57
2019-01-27T06:35:36.758Z,42.03
2019-01-27T06:38:03.611Z,45.47
2019-01-27T06:40:29.801Z,43.33
2019-01-27T06:42:55.954Z,46.80
2019-01-27T06:45:22.752Z,40.77
2019-01-27T06:47:48.939Z,52.27
2019-01-27T06:50:15.104Z,23.07
2019-01-27T06:52:41.288Z,29.07
2019-01-27T06:55:10.972Z,28.43
2019-01-27T06:57:37.122Z,19.87
2019-01-27T07:00:08.787Z,19.33
2019-01-27T07:02:36.893Z,18.83
2019-01-27T07:05:08.150Z,17.53
2019-01-27T07:07:39.017Z,17.50
2019-01-27T07:10:21.248Z,19.30
2019-01-27T07:12:58.254Z,22.63
2019-01-27T07:15:26.321Z,23.53
2019-01-27T07:17:54.381Z,19.83
2019-01-27T07:20:31.187Z,26.43
2019-01-27T07:23:02.015Z,13.50
2019-01-27T07:25:30.082Z,16.17
2019-01-27T07:28:06.980Z,18.80
2019-01-27T07:30:35.071Z,19.90
2019-01-27T07:33:12.042Z,22.83
2019-01-27T07:35:40.109Z,17.40
2019-01-27T07:38:08.174Z,21.07
2019-01-27T07:40:38.790Z,19.97
2019-01-27T07:43:06.864Z,17.57
2019-01-27T07:45:37.771Z,15.20
2019-01-27T07:48:20.672Z,16.20
2019-01-27T07:50:48.732Z,12.73
2019-01-27T07:53:16.794Z,11.00
2019-01-27T07:58:36.667Z,9.23
2019-01-27T08:01:16.860Z,28.30
2019-01-27T08:03:47.553Z,13.57
2019-01-27T08:06:18.440Z,15.27
2019-01-27T08:08:46.507Z,14.23
2019-01-27T08:11:14.567Z,14.90
2019-01-27T08:13:57.436Z,14.07
2019-01-27T08:16:28.035Z,9.53
2019-01-27T08:18:56.099Z,23.73
2019-01-27T08:21:30.184Z,23.50
2019-01-27T08:24:15.578Z,20.87
2019-01-27T08:26:43.677Z,21.63
2019-01-27T08:29:11.756Z,11.00
2019-01-27T08:31:45.375Z,14.53
2019-01-27T08:34:16.886Z,14.50
2019-01-27T08:36:44.934Z,13.40
2019-01-27T08:39:18.559Z,11.07
2019-01-27T08:42:03.002Z,15.03
2019-01-27T08:44:31.103Z,15.67
2019-01-27T08:46:57.379Z,19.53
2019-01-27T08:49:23.575Z,11.87
2019-01-27T08:51:49.728Z,16.00
2019-01-27T08:54:15.876Z,15.20
2019-01-27T08:56:42.064Z,18.10
2019-01-27T08:59:08.230Z,14.30
2019-01-27T09:01:41.848Z,11.70
2019-01-27T09:04:09.955Z,14.97
2019-01-27T09:06:46.984Z,13.33
2019-01-27T09:09:17.930Z,16.23
2019-01-27T09:14:39.442Z,26.43
2019-01-27T09:17:13.288Z,13.37
2019-01-27T09:19:59.505Z,17.37
2019-01-27T09:22:33.142Z,14.37
2019-01-27T09:25:19.436Z,15.53
2019-01-27T09:27:56.274Z,14.40
2019-01-27T09:30:27.292Z,13.03
2019-01-27T09:32:55.358Z,14.83
2019-01-27T09:35:23.409Z,15.00
2019-01-27T09:38:06.323Z,12.87
2019-01-27T09:40:37.222Z,12.57
2019-01-27T09:43:22.239Z,13.37
2019-01-27T09:46:05.155Z,11.20
2019-01-27T09:48:26.398Z,12.20
2019-01-27T09:50:54.459Z,8.70
2019-01-27T09:53:22.519Z,11.67
2019-01-27T09:56:02.510Z,11.73
2019-01-27T09:58:30.588Z,12.20
2019-01-27T10:01:04.486Z,8.63
2019-01-27T10:03:50.436Z,10.23
2019-01-27T10:06:24.521Z,11.27
2019-01-27T10:09:07.708Z,10.67
2019-01-27T10:11:44.740Z,12.33
2019-01-27T10:14:30.975Z,11.43
2019-01-27T10:17:13.948Z,12.83
2019-01-27T10:19:44.845Z,10.90
2019-01-27T10:22:12.907Z,10.63
2019-01-27T10:24:43.836Z,10.60
2019-01-27T10:27:23.929Z,12.43
2019-01-27T10:29:57.602Z,12.93
2019-01-27T10:32:40.486Z,13.50
2019-01-27T10:35:24.369Z,13.93
2019-01-27T10:37:52.435Z,13.47
2019-01-27T10:40:25.446Z,13.43
2019-01-27T10:43:19.425Z,14.60
2019-01-27T10:45:50.336Z,13.23
2019-01-27T10:48:18.504Z,15.37
2019-01-27T10:50:49.396Z,16.63
2019-01-27T10:53:20.879Z,13.30
2019-01-27T10:55:56.545Z,11.10
2019-01-27T10:58:30.922Z,6.60
2019-01-27T11:01:07.727Z,14.97
2019-01-27T11:03:50.618Z,10.07
2019-01-27T11:06:21.746Z,27.03
2019-01-27T11:08:52.676Z,15.47
2019-01-27T11:11:20.730Z,10.90
2019-01-27T11:13:57.814Z,9.13
2019-01-27T11:16:31.567Z,14.00
2019-01-27T11:19:05.422Z,9.83
2019-01-27T11:21:45.562Z,14.13
2019-01-27T11:24:19.653Z,14.43
2019-01-27T11:26:47.713Z,18.40
2019-01-27T11:29:15.811Z,10.93
2019-01-27T11:32:02.017Z,8.27
2019-01-27T11:34:46.673Z,10.70
2019-01-27T11:37:23.515Z,8.40
2019-01-27T11:40:08.334Z,11.60
2019-01-27T11:42:36.444Z,9.70
2019-01-27T11:45:09.919Z,10.97
2019-01-27T11:47:44.098Z,6.87
2019-01-27T11:50:14.763Z,12.07
2019-01-27T11:52:41.146Z,10.87
2019-01-27T11:55:10.098Z,5.83
2019-01-27T11:57:36.244Z,10.93
2019-01-27T12:00:05.907Z,11.53
2019-01-27T12:02:32.100Z,11.13
2019-01-27T12:04:58.260Z,10.87
2019-01-27T12:07:24.527Z,13.30
2019-01-27T12:09:50.710Z,12.03
2019-01-27T12:12:16.979Z,11.10
2019-01-27T12:14:43.141Z,10.87
2019-01-27T12:17:11.267Z,10.30
2019-01-27T12:19:40.342Z,10.83
2019-01-27T12:22:07.296Z,8.50
2019-01-27T12:24:33.508Z,8.20
2019-01-27T12:26:59.795Z,8.37
2019-01-27T12:29:25.959Z,8.10
2019-01-27T12:31:52.268Z,8.20
2019-01-27T12:34:18.435Z,8.87
2019-01-27T12:36:44.600Z,8.33
2019-01-27T12:39:10.799Z,9.90
2019-01-27T12:41:36.967Z,10.30
2019-01-27T12:44:03.120Z,7.33
2019-01-27T12:46:29.328Z,10.33
2019-01-27T12:48:55.497Z,8.70
2019-01-27T12:51:21.663Z,8.73
2019-01-27T12:53:48.015Z,9.27
2019-01-27T12:56:15.197Z,9.17
2019-01-27T12:58:41.372Z,10.87
2019-01-27T13:01:07.663Z,10.07
2019-01-27T13:03:33.939Z,9.13
2019-01-27T13:06:00.151Z,10.00
2019-01-27T13:08:26.311Z,9.90
2019-01-27T13:10:52.480Z,8.03
2019-01-27T13:13:18.651Z,7.83
2019-01-27T13:15:44.931Z,10.50
2019-01-27T13:18:11.095Z,11.17
2019-01-27T13:20:37.257Z,13.93
2019-01-27T13:23:03.603Z,15.40
2019-01-27T13:25:29.866Z,12.80
2019-01-27T13:27:56.132Z,12.50
2019-01-27T13:30:24.441Z,11.10
2019-01-27T13:32:50.595Z,8.73
2019-01-27T13:35:17.260Z,10.17
2019-01-27T13:37:43.455Z,10.13
2019-01-27T13:40:17.123Z,10.30
2019-01-27T13:42:43.315Z,11.47
2019-01-27T13:45:13.431Z,9.83
2019-01-27T13:47:39.619Z,10.93
2019-01-27T13:50:10.157Z,11.17
2019-01-27T13:52:36.615Z,9.90
2019-01-27T13:55:05.941Z,9.07
2019-01-27T13:57:32.203Z,9.23
2019-01-27T13:59:58.587Z,8.07
2019-01-27T14:02:24.741Z,7.73
2019-01-27T14:04:50.901Z,11.70
2019-01-27T14:07:17.085Z,11.07
2019-01-27T14:09:43.247Z,11.27
2019-01-27T14:12:09.409Z,10.20
2019-01-27T14:14:35.600Z,11.43
2019-01-27T14:17:01.768Z,10.70
2019-01-27T14:19:29.739Z,9.13
2019-01-27T14:21:55.930Z,9.70
2019-01-27T14:24:22.094Z,10.10
2019-01-27T14:26:48.263Z,8.70
2019-01-27T14:29:14.460Z,9.77
2019-01-27T14:31:40.613Z,10.10
2019-01-27T14:34:06.897Z,12.17
2019-01-27T14:36:33.083Z,15.47
2019-01-27T14:38:59.375Z,18.43
2019-01-27T14:41:25.532Z,16.43
2019-01-27T14:43:51.724Z,19.13
2019-01-27T14:46:17.882Z,12.17
2019-01-27T14:48:44.048Z,15.63
2019-01-27T14:51:10.394Z,16.10
2019-01-27T14:53:36.532Z,16.73
2019-01-27T14:56:10.844Z,17.10
2019-01-27T14:58:37.032Z,15.50
2019-01-27T15:01:03.491Z,12.33
2019-01-27T15:03:29.747Z,14.07
2019-01-27T15:05:55.930Z,17.53
2019-01-27T15:08:22.080Z,19.17
2019-01-27T15:10:48.237Z,19.83
2019-01-27T15:13:14.425Z,23.27
2019-01-27T15:15:40.684Z,24.47
2019-01-27T15:18:06.845Z,29.80
2019-01-27T15:20:47.814Z,36.03
2019-01-27T15:23:14.080Z,48.33
2019-01-27T15:25:40.261Z,58.20
2019-01-27T15:28:06.447Z,77.57
2019-01-27T15:30:35.432Z,42.20
2019-01-27T15:33:01.725Z,49.40
2019-01-27T15:35:27.921Z,52.97
2019-01-27T15:37:54.192Z,57.87
2019-01-27T15:40:20.451Z,67.73
2019-01-27T15:42:46.641Z,95.00
2019-01-27T15:45:16.103Z,58.20
2019-01-27T15:47:42.359Z,56.10
2019-01-27T15:50:12.177Z,65.97
2019-01-27T15:52:38.330Z,73.13
2019-01-27T15:55:08.099Z,84.03
2019-01-27T15:57:35.264Z,69.10
2019-01-27T16:00:05.726Z,62.17
2019-01-27T16:02:31.980Z,51.77
2019-01-27T16:04:58.164Z,61.43
2019-01-27T16:07:24.410Z,75.87
2019-01-27T16:09:50.903Z,86.20
2019-01-27T16:12:17.103Z,84.50
2019-01-27T16:14:43.268Z,57.07
2019-01-27T16:17:09.536Z,69.37
2019-01-27T16:19:35.730Z,64.77
2019-01-27T16:22:01.900Z,58.50
2019-01-27T16:24:29.312Z,67.13
2019-01-27T16:26:55.658Z,76.67
2019-01-27T16:29:23.726Z,80.17
2019-01-27T16:31:51.789Z,71.87
2019-01-27T16:34:19.882Z,64.40
2019-01-27T16:36:46.053Z,112.73
2019-01-27T16:39:12.324Z,199.27
2019-01-27T16:41:38.540Z,217.70
2019-01-27T16:44:04.792Z,114.83
2019-01-27T16:46:30.952Z,232.60
2019-01-27T16:48:57.250Z,117.00
2019-01-27T16:51:23.519Z,106.10
2019-01-27T16:53:49.674Z,123.53
2019-01-27T16:56:15.978Z,81.17
2019-01-27T16:58:42.217Z,107.97
2019-01-27T17:01:08.423Z,77.13
2019-01-27T17:03:34.594Z,68.20
2019-01-27T17:06:00.858Z,61.60
2019-01-27T17:08:27.021Z,66.60
2019-01-27T17:10:53.321Z,95.27
2019-01-27T17:13:19.478Z,112.13
2019-01-27T17:15:45.639Z,113.03
2019-01-27T17:18:11.889Z,153.03
2019-01-27T17:20:38.045Z,137.30
2019-01-27T17:23:04.307Z,88.80
2019-01-27T17:25:31.937Z,60.27
2019-01-27T17:27:58.084Z,36.90
2019-01-27T17:30:25.752Z,41.83
2019-01-27T17:32:52.051Z,40.50
2019-01-27T17:35:18.805Z,46.37
2019-01-27T17:37:45.071Z,52.33
2019-01-27T17:40:15.601Z,37.23
2019-01-27T17:42:41.756Z,34.20
2019-01-27T17:45:14.391Z,41.13
2019-01-27T17:47:40.600Z,38.43
2019-01-27T17:50:11.013Z,48.63
2019-01-27T17:52:37.168Z,54.43
2019-01-27T17:55:06.967Z,44.30
2019-01-27T17:57:35.030Z,37.93
2019-01-27T18:00:03.150Z,45.40
2019-01-27T18:02:43.072Z,39.38
2019-01-27T18:05:13.898Z,35.87
2019-01-27T18:07:41.964Z,41.27
2019-01-27T18:10:14.542Z,32.67
2019-01-27T18:12:42.607Z,28.00
2019-01-27T18:15:09.277Z,39.17
2019-01-27T18:17:35.487Z,27.13
2019-01-27T18:20:01.754Z,27.03
2019-01-27T18:22:28.025Z,26.83
2019-01-27T18:24:54.382Z,23.17
2019-01-27T18:27:20.526Z,19.13
2019-01-27T18:29:47.052Z,30.40
2019-01-27T18:32:13.258Z,23.23
2019-01-27T18:34:39.556Z,21.73
2019-01-27T18:37:09.878Z,21.16
2019-01-27T18:39:36.150Z,20.87
2019-01-27T18:42:02.749Z,24.67
2019-01-27T18:44:28.922Z,26.50
2019-01-27T18:46:58.853Z,23.07
2019-01-27T18:49:28.088Z,23.83
2019-01-27T18:51:54.350Z,26.30
2019-01-27T18:54:40.329Z,37.60
2019-01-27T18:57:23.419Z,47.43
2019-01-27T19:00:05.632Z,43.77
2019-01-27T19:02:45.528Z,107.33
2019-01-27T19:05:13.624Z,70.93
2019-01-27T19:07:44.210Z,42.60
2019-01-27T19:10:21.135Z,40.53
2019-01-27T19:12:55.032Z,32.87
2019-01-27T19:15:28.704Z,125.87
2019-01-27T19:18:05.361Z,63.80
2019-01-27T19:20:35.990Z,139.13
2019-01-27T19:23:06.592Z,66.07
2019-01-27T19:25:37.482Z,29.83
2019-01-27T19:28:06.151Z,29.30
2019-01-27T19:30:34.228Z,37.60
2019-01-27T19:33:18.971Z,27.20
2019-01-27T19:35:52.644Z,23.63
2019-01-27T19:38:26.546Z,22.17
2019-01-27T19:40:57.148Z,20.77
2019-01-27T19:43:28.117Z,20.40
2019-01-27T19:45:59.017Z,27.90
2019-01-27T19:51:33.533Z,24.10
2019-01-27T19:54:10.470Z,16.30
2019-01-27T19:56:38.572Z,25.23
2019-01-27T19:59:06.637Z,23.07
2019-01-27T20:01:40.399Z,32.07
2019-01-27T20:04:11.029Z,35.53
2019-01-27T20:06:43.734Z,26.77
2019-01-27T20:09:28.335Z,31.43
2019-01-27T20:11:58.915Z,31.53
2019-01-27T20:14:35.641Z,39.77
2019-01-27T20:17:03.711Z,36.97
2019-01-27T20:19:37.392Z,35.30
2019-01-27T20:22:05.556Z,29.67
2019-01-27T20:24:33.615Z,29.80
2019-01-27T20:27:04.511Z,31.23
2019-01-27T20:29:48.938Z,33.87
2019-01-27T20:32:17.088Z,33.77
2019-01-27T20:34:56.830Z,32.00
2019-01-27T20:37:33.754Z,32.17
2019-01-27T20:40:19.831Z,27.97
2019-01-27T20:42:54.125Z,27.90
2019-01-27T20:45:25.231Z,40.67
2019-01-27T20:47:53.297Z,43.07
2019-01-27T20:50:36.422Z,34.33
2019-01-27T20:53:10.330Z,44.40
2019-01-27T20:55:50.412Z,27.20
2019-01-27T20:58:24.261Z,25.10
2019-01-27T21:01:01.240Z,25.60
2019-01-27T21:03:29.306Z,53.83
2019-01-27T21:06:12.510Z,48.33
2019-01-27T21:08:40.573Z,43.43
2019-01-27T21:11:25.340Z,40.00
2019-01-27T21:13:53.408Z,43.40
2019-01-27T21:16:39.694Z,40.43
2019-01-27T21:19:10.527Z,35.97
2019-01-27T21:21:36.694Z,38.97
2019-01-27T21:24:03.797Z,39.73
2019-01-27T21:26:29.954Z,36.53
2019-01-27T21:28:56.115Z,37.83
2019-01-27T21:31:23.161Z,45.00
2019-01-27T21:33:49.319Z,44.57
2019-01-27T21:36:15.472Z,46.17
2019-01-27T21:38:41.764Z,57.93
2019-01-27T21:41:07.927Z,54.87
2019-01-27T21:43:34.189Z,46.33
2019-01-27T21:46:00.498Z,48.17
2019-01-27T21:48:26.668Z,44.57
2019-01-27T21:50:52.844Z,45.63
2019-01-27T21:53:40.723Z,43.77
2019-01-27T21:55:54.869Z,39.67
2019-01-27T21:58:21.251Z,43.73
2019-01-27T22:00:47.526Z,56.37
2019-01-27T22:03:13.694Z,56.60
2019-01-27T22:05:39.851Z,103.20
2019-01-27T22:08:06.146Z,56.10
2019-01-27T22:10:32.316Z,40.83
2019-01-27T22:12:58.474Z,38.37
2019-01-27T22:15:24.660Z,34.37
2019-01-27T22:17:50.812Z,33.87
2019-01-27T22:20:16.968Z,32.17
2019-01-27T22:22:43.171Z,34.40
2019-01-27T22:25:12.128Z,35.73
2019-01-27T22:27:38.290Z,31.30
2019-01-27T22:30:08.185Z,32.10
2019-01-27T22:32:34.442Z,28.20
2019-01-27T22:35:00.602Z,28.43
2019-01-27T22:37:26.805Z,30.07
2019-01-27T22:39:52.972Z,34.90
2019-01-27T22:42:19.127Z,34.07
2019-01-27T22:44:45.319Z,35.77
2019-01-27T22:47:11.480Z,52.13
2019-01-27T22:49:37.631Z,29.20
2019-01-27T22:52:03.924Z,29.40
2019-01-27T22:54:30.186Z,28.33
2019-01-27T22:56:56.349Z,27.77
2019-01-27T22:59:22.646Z,27.23
2019-01-27T23:01:48.792Z,28.50
2019-01-27T23:04:14.945Z,26.30
2019-01-27T23:06:41.249Z,27.23
2019-01-27T23:09:09.423Z,23.87
2019-01-27T23:11:35.688Z,24.30
2019-01-27T23:14:02.064Z,23.93
2019-01-27T23:16:28.232Z,25.33
2019-01-27T23:18:54.515Z,26.23
2019-01-27T23:21:24.067Z,24.67
2019-01-27T23:23:50.343Z,27.60
2019-01-27T23:26:16.507Z,27.83
2019-01-27T23:28:42.710Z,26.37
2019-01-27T23:31:09.008Z,26.57
2019-01-27T23:33:35.193Z,69.27
2019-01-27T23:36:01.477Z,26.43
2019-01-27T23:38:28.919Z,26.40
2019-01-27T23:40:55.189Z,73.30
2019-01-27T23:43:21.356Z,30.97
2019-01-27T23:45:47.663Z,27.97
2019-01-27T23:48:13.993Z,26.17
2019-01-27T23:50:40.370Z,29.53
2019-01-27T23:53:06.525Z,26.67
2019-01-27T23:55:32.792Z,24.63
2019-01-27T23:57:58.978Z,22.10
